Terminal Aerodrome Forecast
Issued by NWS

Home | Current Version | Previous Version | Text Only | Print | Product List | Glossary On
Versions: 1 2 3 4 5 6 7 8 9 10 11 12 13
245
FTUS43 KGRB 261120
TAFMTW
TAF
KMTW 261120Z 2612/2712 16010KT P6SM BKN110
     FM261400 18011G18KT P6SM BKN050
      TEMPO 2614/2618 5SM TSRA BKN025CB
     FM262300 17011KT 4SM BR OVC035
     FM270200 21004KT 3SM RA BR OVC017
     FM270800 29006KT 3SM RA OVC009=

USA.gov is the U.S. government's official web portal to all federal, state and local government web resources and services.